Time,TemperatureF,DewpointF,PressureIn,WindDirection,WindDirectionDegrees,WindSpeedMPH,WindSpeedGustMPH,Humidity,HourlyPrecipIn,Conditions,Clouds,dailyrainin,SoftwareType,DateUTC
2013-08-23 00:01:00,71.4,68.0,29.36,NNE,23,0.0,0.0,89,0.00,,,0.00,WUHU216HW,2013-08-23 04:01:00,
2013-08-23 00:02:00,71.4,67.6,29.37,NNE,23,0.0,0.0,88,0.00,,,0.00,WUHU216HW,2013-08-23 04:02:00,
2013-08-23 00:07:00,71.4,67.6,29.37,NNE,23,0.0,0.0,88,0.00,,,0.00,WUHU216HW,2013-08-23 04:07:00,
2013-08-23 00:12:00,71.4,67.6,29.37,NNE,23,0.0,0.0,88,0.00,,,0.00,WUHU216HW,2013-08-23 04:12:00,
2013-08-23 00:17:00,71.4,67.6,29.37,ENE,68,0.0,0.0,88,0.00,,,0.00,WUHU216HW,2013-08-23 04:17:00,
2013-08-23 00:22:00,71.2,67.4,29.37,ENE,68,0.0,0.0,88,0.00,,,0.00,WUHU216HW,2013-08-23 04:22:00,
2013-08-23 00:28:00,71.2,67.4,29.37,ENE,68,0.0,0.0,88,0.00,,,0.00,WUHU216HW,2013-08-23 04:28:00,
2013-08-23 00:33:00,71.2,67.4,29.38,ENE,68,0.0,0.0,88,0.00,,,0.00,WUHU216HW,2013-08-23 04:33:00,
2013-08-23 00:38:00,71.2,67.4,29.38,ENE,68,0.0,0.0,88,0.00,,,0.00,WUHU216HW,2013-08-23 04:38:00,
2013-08-23 00:43:00,71.0,66.9,29.38,ENE,68,0.0,0.0,87,0.00,,,0.00,WUHU216HW,2013-08-23 04:43:00,
2013-08-23 00:48:00,70.8,66.7,29.38,ENE,68,0.0,0.0,87,0.00,,,0.00,WUHU216HW,2013-08-23 04:48:00,
2013-08-23 00:53:00,70.8,66.7,29.37,ENE,68,0.0,0.0,87,0.00,,,0.00,WUHU216HW,2013-08-23 04:53:00,
2013-08-23 00:58:00,70.8,66.7,29.38,ENE,68,0.0,0.0,87,0.00,,,0.00,WUHU216HW,2013-08-23 04:58:00,
2013-08-23 01:03:00,70.8,66.7,29.38,ENE,68,0.0,0.0,87,0.00,,,0.00,WUHU216HW,2013-08-23 05:03:00,
2013-08-23 01:08:00,70.8,66.7,29.38,ENE,68,0.0,0.0,87,0.00,,,0.00,WUHU216HW,2013-08-23 05:08:00,
2013-08-23 01:13:00,70.8,66.7,29.38,ENE,68,0.0,0.0,87,0.00,,,0.00,WUHU216HW,2013-08-23 05:13:00,
2013-08-23 01:18:00,70.7,66.6,29.38,ENE,68,0.0,0.0,87,0.00,,,0.00,WUHU216HW,2013-08-23 05:18:00,
2013-08-23 01:23:00,70.7,66.6,29.38,ENE,68,0.0,0.0,87,0.00,,,0.00,WUHU216HW,2013-08-23 05:23:00,
2013-08-23 01:29:00,70.7,66.6,29.37,ENE,68,0.0,0.0,87,0.00,,,0.00,WUHU216HW,2013-08-23 05:29:00,
2013-08-23 01:34:00,70.5,66.4,29.37,ENE,68,0.0,0.0,87,0.00,,,0.00,WUHU216HW,2013-08-23 05:34:00,
2013-08-23 01:39:00,70.5,66.4,29.37,ENE,68,0.0,0.0,87,0.00,,,0.00,WUHU216HW,2013-08-23 05:39:00,
2013-08-23 01:44:00,70.5,66.4,29.37,ENE,68,0.0,0.0,87,0.00,,,0.00,WUHU216HW,2013-08-23 05:44:00,
2013-08-23 01:49:00,70.5,66.4,29.38,ENE,68,0.0,0.0,87,0.00,,,0.00,WUHU216HW,2013-08-23 05:49:00,
2013-08-23 01:54:00,70.5,66.4,29.38,ENE,68,0.0,0.0,87,0.00,,,0.00,WUHU216HW,2013-08-23 05:54:00,
2013-08-23 01:59:00,70.3,66.2,29.38,ENE,68,0.0,0.0,87,0.00,,,0.00,WUHU216HW,2013-08-23 05:59:00,
2013-08-23 02:04:00,70.3,66.5,29.38,ENE,68,0.0,0.0,88,0.00,,,0.00,WUHU216HW,2013-08-23 06:04:00,
2013-08-23 02:09:00,70.3,66.5,29.38,ENE,68,0.0,0.0,88,0.00,,,0.00,WUHU216HW,2013-08-23 06:09:00,
2013-08-23 02:14:00,70.3,66.5,29.39,ENE,68,0.0,0.0,88,0.00,,,0.00,WUHU216HW,2013-08-23 06:14:00,
2013-08-23 02:19:00,70.3,66.5,29.38,ENE,68,0.0,0.0,88,0.00,,,0.00,WUHU216HW,2013-08-23 06:19:00,
2013-08-23 02:24:00,70.1,66.4,29.39,ENE,68,0.0,0.0,88,0.00,,,0.00,WUHU216HW,2013-08-23 06:24:00,
2013-08-23 02:30:00,70.1,66.4,29.38,ENE,68,0.0,0.0,88,0.00,,,0.00,WUHU216HW,2013-08-23 06:30:00,
2013-08-23 02:35:00,69.9,66.2,29.38,ENE,68,0.0,0.0,88,0.00,,,0.00,WUHU216HW,2013-08-23 06:35:00,
2013-08-23 02:40:00,69.9,66.2,29.38,ENE,68,0.0,0.0,88,0.00,,,0.00,WUHU216HW,2013-08-23 06:40:00,
2013-08-23 02:45:00,69.9,66.2,29.39,ENE,68,0.0,0.0,88,0.00,,,0.00,WUHU216HW,2013-08-23 06:45:00,
2013-08-23 02:50:00,69.8,66.0,29.38,ENE,68,0.0,0.0,88,0.00,,,0.00,WUHU216HW,2013-08-23 06:50:00,
2013-08-23 02:55:00,69.6,65.8,29.39,ENE,68,0.0,0.0,88,0.00,,,0.00,WUHU216HW,2013-08-23 06:55:00,
2013-08-23 03:00:00,69.6,65.8,29.38,ESE,113,0.0,0.0,88,0.00,,,0.00,WUHU216HW,2013-08-23 07:00:00,
2013-08-23 03:05:00,69.4,65.6,29.39,ESE,113,0.0,0.0,88,0.00,,,0.00,WUHU216HW,2013-08-23 07:05:00,
2013-08-23 03:10:00,69.4,65.6,29.39,ESE,113,0.0,0.0,88,0.00,,,0.00,WUHU216HW,2013-08-23 07:10:00,
2013-08-23 03:15:00,69.2,65.5,29.38,ESE,113,0.0,0.0,88,0.00,,,0.00,WUHU216HW,2013-08-23 07:15:00,
2013-08-23 03:20:00,69.0,65.3,29.39,ESE,113,0.0,0.0,88,0.00,,,0.00,WUHU216HW,2013-08-23 07:20:00,
2013-08-23 03:25:00,68.9,64.8,29.39,ESE,113,0.0,0.0,87,0.00,,,0.00,WUHU216HW,2013-08-23 07:25:00,
2013-08-23 03:31:00,68.9,64.8,29.39,East,90,0.0,0.0,87,0.00,,,0.00,WUHU216HW,2013-08-23 07:31:00,
2013-08-23 03:36:00,68.7,64.6,29.39,ENE,68,0.0,0.0,87,0.00,,,0.00,WUHU216HW,2013-08-23 07:36:00,
2013-08-23 03:41:00,68.5,64.4,29.39,East,90,0.0,0.0,87,0.00,,,0.00,WUHU216HW,2013-08-23 07:41:00,
2013-08-23 03:46:00,68.5,64.4,29.39,SSE,158,0.0,0.0,87,0.00,,,0.00,WUHU216HW,2013-08-23 07:46:00,
2013-08-23 03:51:00,68.3,64.3,29.39,SSE,158,0.0,0.0,87,0.00,,,0.00,WUHU216HW,2013-08-23 07:51:00,
2013-08-23 03:56:00,68.1,64.1,29.39,SSE,158,0.0,0.0,87,0.00,,,0.00,WUHU216HW,2013-08-23 07:56:00,
2013-08-23 04:01:00,67.8,63.7,29.39,SSE,158,0.0,0.0,87,0.00,,,0.00,WUHU216HW,2013-08-23 08:01:00,
2013-08-23 04:06:00,67.8,63.7,29.39,SSE,158,0.0,0.0,87,0.00,,,0.00,WUHU216HW,2013-08-23 08:06:00,
2013-08-23 04:11:00,67.6,63.9,29.39,SSE,158,0.0,0.0,88,0.00,,,0.00,WUHU216HW,2013-08-23 08:11:00,
2013-08-23 04:16:00,67.6,63.9,29.39,SSE,158,0.0,0.0,88,0.00,,,0.00,WUHU216HW,2013-08-23 08:16:00,
2013-08-23 04:21:00,67.2,63.5,29.39,SSE,158,0.0,0.0,88,0.00,,,0.00,WUHU216HW,2013-08-23 08:21:00,
2013-08-23 04:26:00,67.1,63.3,29.39,SSE,158,0.0,0.0,88,0.00,,,0.00,WUHU216HW,2013-08-23 08:26:00,
2013-08-23 04:32:00,66.9,63.2,29.39,SSE,158,0.0,0.0,88,0.00,,,0.00,WUHU216HW,2013-08-23 08:32:00,
2013-08-23 04:37:00,66.7,63.0,29.39,SSE,158,0.0,0.0,88,0.00,,,0.00,WUHU216HW,2013-08-23 08:37:00,
2013-08-23 04:42:00,66.7,63.0,29.39,SSE,158,0.0,0.0,88,0.00,,,0.00,WUHU216HW,2013-08-23 08:42:00,
2013-08-23 04:47:00,66.5,62.8,29.39,SSE,158,0.0,0.0,88,0.00,,,0.00,WUHU216HW,2013-08-23 08:47:00,
2013-08-23 04:52:00,66.3,62.6,29.39,SSE,158,0.0,0.0,88,0.00,,,0.00,WUHU216HW,2013-08-23 08:52:00,
2013-08-23 04:57:00,66.2,62.1,29.40,SSE,158,0.0,0.0,87,0.00,,,0.00,WUHU216HW,2013-08-23 08:57:00,
2013-08-23 05:02:00,66.0,62.3,29.41,SSE,158,0.0,0.0,88,0.00,,,0.00,WUHU216HW,2013-08-23 09:02:00,
2013-08-23 05:07:00,66.0,62.3,29.41,SSE,158,0.0,0.0,88,0.00,,,0.00,WUHU216HW,2013-08-23 09:07:00,
2013-08-23 05:12:00,66.0,62.3,29.41,SSE,158,0.0,0.0,88,0.00,,,0.00,WUHU216HW,2013-08-23 09:12:00,
2013-08-23 05:17:00,65.8,62.1,29.41,SSE,158,0.0,0.0,88,0.00,,,0.00,WUHU216HW,2013-08-23 09:17:00,
2013-08-23 05:22:00,65.8,62.1,29.42,SSE,158,0.0,0.0,88,0.00,,,0.00,WUHU216HW,2013-08-23 09:22:00,
2013-08-23 05:27:00,65.4,61.8,29.42,SSE,158,0.0,0.0,88,0.00,,,0.00,WUHU216HW,2013-08-23 09:27:00,
2013-08-23 05:33:00,65.4,61.8,29.42,SSE,158,0.0,0.0,88,0.00,,,0.00,WUHU216HW,2013-08-23 09:33:00,
2013-08-23 05:38:00,65.3,61.6,29.43,SSE,158,0.0,0.0,88,0.00,,,0.00,WUHU216HW,2013-08-23 09:38:00,
2013-08-23 05:43:00,65.1,61.4,29.43,SSE,158,0.0,0.0,88,0.00,,,0.00,WUHU216HW,2013-08-23 09:43:00,
2013-08-23 05:48:00,65.1,61.4,29.43,SSE,158,0.0,0.0,88,0.00,,,0.00,WUHU216HW,2013-08-23 09:48:00,
2013-08-23 05:53:00,65.1,61.4,29.43,ESE,113,0.0,0.0,88,0.00,,,0.00,WUHU216HW,2013-08-23 09:53:00,
2013-08-23 05:58:00,64.9,61.3,29.43,ESE,113,0.0,0.0,88,0.00,,,0.00,WUHU216HW,2013-08-23 09:58:00,
2013-08-23 06:03:00,64.9,61.6,29.43,ESE,113,0.0,0.0,89,0.00,,,0.00,WUHU216HW,2013-08-23 10:03:00,
2013-08-23 06:08:00,64.7,61.5,29.44,ESE,113,0.0,0.0,89,0.00,,,0.00,WUHU216HW,2013-08-23 10:08:00,
2013-08-23 06:13:00,64.7,61.5,29.44,ESE,113,0.0,0.0,89,0.00,,,0.00,WUHU216HW,2013-08-23 10:13:00,
2013-08-23 06:18:00,64.7,61.5,29.44,ESE,113,0.0,0.0,89,0.00,,,0.00,WUHU216HW,2013-08-23 10:18:00,
2013-08-23 06:23:00,64.7,61.5,29.44,ESE,113,0.0,0.0,89,0.00,,,0.00,WUHU216HW,2013-08-23 10:23:00,
2013-08-23 06:28:00,64.9,61.6,29.44,ESE,113,0.0,0.0,89,0.00,,,0.00,WUHU216HW,2013-08-23 10:28:00,
2013-08-23 06:34:00,64.9,61.6,29.44,ESE,113,0.0,0.0,89,0.00,,,0.00,WUHU216HW,2013-08-23 10:34:00,
2013-08-23 06:39:00,64.9,61.6,29.44,ESE,113,0.0,0.0,89,0.00,,,0.00,WUHU216HW,2013-08-23 10:39:00,
2013-08-23 06:44:00,65.1,61.8,29.44,ESE,113,0.0,0.0,89,0.00,,,0.00,WUHU216HW,2013-08-23 10:44:00,
2013-08-23 06:49:00,65.1,61.4,29.44,East,90,0.0,0.0,88,0.00,,,0.00,WUHU216HW,2013-08-23 10:49:00,
2013-08-23 06:54:00,65.1,61.4,29.45,East,90,0.0,0.0,88,0.00,,,0.00,WUHU216HW,2013-08-23 10:54:00,
2013-08-23 06:59:00,65.1,61.4,29.45,ESE,113,0.0,0.0,88,0.00,,,0.00,WUHU216HW,2013-08-23 10:59:00,
2013-08-23 07:04:00,65.3,61.6,29.46,ESE,113,0.0,0.0,88,0.00,,,0.00,WUHU216HW,2013-08-23 11:04:00,
2013-08-23 07:09:00,65.4,61.8,29.46,ESE,113,0.0,0.0,88,0.00,,,0.00,WUHU216HW,2013-08-23 11:09:00,
2013-08-23 07:14:00,65.6,61.9,29.46,ESE,113,0.0,0.0,88,0.00,,,0.00,WUHU216HW,2013-08-23 11:14:00,
2013-08-23 07:19:00,65.6,61.9,29.46,ESE,113,0.0,0.0,88,0.00,,,0.00,WUHU216HW,2013-08-23 11:19:00,
2013-08-23 07:24:00,65.8,62.1,29.47,ESE,113,0.0,0.0,88,0.00,,,0.00,WUHU216HW,2013-08-23 11:24:00,
2013-08-23 07:29:00,65.8,62.1,29.46,ESE,113,0.0,0.0,88,0.00,,,0.00,WUHU216HW,2013-08-23 11:29:00,
2013-08-23 07:34:00,66.0,62.3,29.47,ESE,113,0.0,0.0,88,0.00,,,0.00,WUHU216HW,2013-08-23 11:34:00,
2013-08-23 07:40:00,66.0,62.3,29.47,ESE,113,0.0,0.0,88,0.00,,,0.00,WUHU216HW,2013-08-23 11:40:00,
2013-08-23 07:45:00,66.0,62.3,29.47,ESE,113,0.0,0.0,88,0.00,,,0.00,WUHU216HW,2013-08-23 11:45:00,
2013-08-23 07:50:00,66.2,62.4,29.47,ESE,113,0.0,0.0,88,0.00,,,0.00,WUHU216HW,2013-08-23 11:50:00,
2013-08-23 07:55:00,66.3,62.6,29.47,ESE,113,0.0,0.0,88,0.00,,,0.00,WUHU216HW,2013-08-23 11:55:00,
2013-08-23 08:00:00,66.3,62.6,29.48,ESE,113,0.0,0.0,88,0.00,,,0.00,WUHU216HW,2013-08-23 12:00:00,
2013-08-23 08:05:00,66.5,62.8,29.48,ESE,113,0.0,0.0,88,0.00,,,0.00,WUHU216HW,2013-08-23 12:05:00,
2013-08-23 08:10:00,66.7,63.0,29.48,ESE,113,0.0,0.0,88,0.00,,,0.00,WUHU216HW,2013-08-23 12:10:00,
2013-08-23 08:15:00,67.1,63.3,29.48,ESE,113,0.0,0.0,88,0.00,,,0.00,WUHU216HW,2013-08-23 12:15:00,
2013-08-23 08:20:00,67.2,63.5,29.48,ESE,113,0.0,0.0,88,0.00,,,0.00,WUHU216HW,2013-08-23 12:20:00,
2013-08-23 08:25:00,67.6,63.9,29.49,ESE,113,0.0,0.0,88,0.00,,,0.00,WUHU216HW,2013-08-23 12:25:00,
2013-08-23 08:30:00,67.8,63.7,29.49,ESE,113,0.0,0.0,87,0.00,,,0.00,WUHU216HW,2013-08-23 12:30:00,
2013-08-23 08:35:00,68.0,63.9,29.49,ESE,113,0.0,0.0,87,0.00,,,0.00,WUHU216HW,2013-08-23 12:35:00,
2013-08-23 08:41:00,68.5,64.4,29.49,ESE,113,0.0,0.0,87,0.00,,,0.00,WUHU216HW,2013-08-23 12:41:00,
2013-08-23 08:46:00,68.9,64.8,29.48,ESE,113,0.0,0.0,87,0.00,,,0.00,WUHU216HW,2013-08-23 12:46:00,
2013-08-23 08:51:00,69.0,64.6,29.49,ESE,113,0.0,0.0,86,0.00,,,0.00,WUHU216HW,2013-08-23 12:51:00,
2013-08-23 08:56:00,69.4,65.0,29.49,East,90,0.0,0.0,86,0.00,,,0.00,WUHU216HW,2013-08-23 12:56:00,
2013-08-23 09:01:00,69.2,64.5,29.49,East,90,0.0,0.0,85,0.00,,,0.00,WUHU216HW,2013-08-23 13:01:00,
2013-08-23 09:06:00,69.2,64.1,29.48,West,270,0.0,0.0,84,0.00,,,0.00,WUHU216HW,2013-08-23 13:06:00,
2013-08-23 09:11:00,69.2,63.8,29.48,SSE,158,0.0,0.0,83,0.00,,,0.00,WUHU216HW,2013-08-23 13:11:00,
2013-08-23 09:16:00,69.2,63.8,29.49,SSE,158,0.0,0.0,83,0.00,,,0.00,WUHU216HW,2013-08-23 13:16:00,
2013-08-23 09:21:00,69.4,64.0,29.49,SSE,158,0.0,0.0,83,0.00,,,0.00,WUHU216HW,2013-08-23 13:21:00,
2013-08-23 09:26:00,69.4,64.0,29.49,SSE,158,0.0,0.0,83,0.00,,,0.00,WUHU216HW,2013-08-23 13:26:00,
2013-08-23 09:31:00,69.4,64.0,29.49,SSW,203,0.0,0.0,83,0.00,,,0.00,WUHU216HW,2013-08-23 13:31:00,
2013-08-23 09:36:00,69.4,64.0,29.49,SW,225,0.0,0.0,83,0.00,,,0.00,WUHU216HW,2013-08-23 13:36:00,
2013-08-23 09:42:00,69.6,64.1,29.49,West,270,0.0,0.0,83,0.00,,,0.00,WUHU216HW,2013-08-23 13:42:00,
2013-08-23 09:47:00,70.7,64.9,29.49,North,0,0.0,0.0,82,0.00,,,0.00,WUHU216HW,2013-08-23 13:47:00,
2013-08-23 09:52:00,71.2,64.7,29.50,NNW,338,0.0,0.0,80,0.00,,,0.00,WUHU216HW,2013-08-23 13:52:00,
2013-08-23 09:57:00,70.8,64.0,29.50,SSE,158,0.0,0.0,79,0.00,,,0.00,WUHU216HW,2013-08-23 13:57:00,
2013-08-23 10:02:00,70.7,63.8,29.50,SE,135,0.0,0.0,79,0.00,,,0.00,WUHU216HW,2013-08-23 14:02:00,
2013-08-23 10:07:00,70.5,63.6,29.50,East,90,0.0,0.0,79,0.00,,,0.00,WUHU216HW,2013-08-23 14:07:00,
2013-08-23 10:12:00,70.5,63.6,29.49,West,270,0.0,0.0,79,0.00,,,0.00,WUHU216HW,2013-08-23 14:12:00,
2013-08-23 10:17:00,70.7,63.4,29.49,WSW,248,0.0,0.0,78,0.00,,,0.00,WUHU216HW,2013-08-23 14:17:00,
2013-08-23 10:22:00,70.8,63.6,29.49,SE,135,0.0,0.0,78,0.00,,,0.00,WUHU216HW,2013-08-23 14:22:00,
2013-08-23 10:27:00,71.2,63.6,29.49,SE,135,0.0,0.0,77,0.00,,,0.00,WUHU216HW,2013-08-23 14:27:00,
2013-08-23 10:32:00,71.4,63.4,29.49,SSE,158,0.0,0.0,76,0.00,,,0.00,WUHU216HW,2013-08-23 14:32:00,
2013-08-23 10:37:00,71.7,63.4,29.50,WNW,293,0.0,0.0,75,0.00,,,0.00,WUHU216HW,2013-08-23 14:37:00,
2013-08-23 10:42:00,71.7,62.6,29.50,ESE,113,0.0,0.0,73,0.00,,,0.00,WUHU216HW,2013-08-23 14:42:00,
2013-08-23 10:48:00,71.9,62.4,29.50,NW,315,0.0,0.0,72,0.00,,,0.00,WUHU216HW,2013-08-23 14:48:00,
2013-08-23 10:53:00,72.1,62.6,29.50,WSW,248,0.0,0.0,72,0.00,,,0.00,WUHU216HW,2013-08-23 14:53:00,
2013-08-23 10:58:00,72.3,62.8,29.50,West,270,0.0,0.0,72,0.00,,,0.00,WUHU216HW,2013-08-23 14:58:00,
2013-08-23 11:03:00,72.5,62.6,29.50,NE,45,0.0,0.0,71,0.00,,,0.00,WUHU216HW,2013-08-23 15:03:00,
2013-08-23 11:08:00,72.5,61.7,29.50,West,270,0.0,0.0,69,0.00,,,0.00,WUHU216HW,2013-08-23 15:08:00,
2013-08-23 11:13:00,72.6,61.9,29.50,SSW,203,0.0,0.0,69,0.00,,,0.00,WUHU216HW,2013-08-23 15:13:00,
2013-08-23 11:18:00,72.6,61.5,29.50,West,270,0.0,0.0,68,0.00,,,0.00,WUHU216HW,2013-08-23 15:18:00,
2013-08-23 11:23:00,72.6,61.0,29.50,East,90,0.0,0.0,67,0.00,,,0.00,WUHU216HW,2013-08-23 15:23:00,
2013-08-23 11:28:00,72.8,61.2,29.50,North,0,0.0,0.0,67,0.00,,,0.00,WUHU216HW,2013-08-23 15:28:00,
2013-08-23 11:33:00,73.0,61.4,29.50,West,270,0.0,0.0,67,0.00,,,0.00,WUHU216HW,2013-08-23 15:33:00,
2013-08-23 11:38:00,73.2,61.6,29.50,East,90,0.0,0.0,67,0.00,,,0.00,WUHU216HW,2013-08-23 15:38:00,
2013-08-23 11:43:00,73.2,61.6,29.50,ESE,113,0.0,0.0,67,0.00,,,0.00,WUHU216HW,2013-08-23 15:43:00,
2013-08-23 11:49:00,73.5,61.0,29.50,NE,45,0.0,0.0,65,0.00,,,0.00,WUHU216HW,2013-08-23 15:49:00,
2013-08-23 11:54:00,73.5,61.0,29.50,WSW,248,0.0,0.0,65,0.00,,,0.00,WUHU216HW,2013-08-23 15:54:00,
2013-08-23 11:59:00,73.5,61.0,29.50,West,270,0.0,0.0,65,0.00,,,0.00,WUHU216HW,2013-08-23 15:59:00,
2013-08-23 12:04:00,73.5,61.0,29.50,SE,135,0.0,0.0,65,0.00,,,0.00,WUHU216HW,2013-08-23 16:04:00,
2013-08-23 12:09:00,73.7,61.2,29.49,ENE,68,0.0,0.0,65,0.00,,,0.00,WUHU216HW,2013-08-23 16:09:00,
2013-08-23 12:14:00,73.7,61.2,29.49,NNW,338,0.0,0.0,65,0.00,,,0.00,WUHU216HW,2013-08-23 16:14:00,
2013-08-23 12:19:00,73.9,61.3,29.49,SE,135,0.0,0.0,65,0.00,,,0.00,WUHU216HW,2013-08-23 16:19:00,
2013-08-23 12:24:00,74.1,61.1,29.49,West,270,0.0,0.0,64,0.00,,,0.00,WUHU216HW,2013-08-23 16:24:00,
2013-08-23 12:29:00,74.1,60.6,29.49,ENE,68,0.0,0.0,63,0.00,,,0.00,WUHU216HW,2013-08-23 16:29:00,
2013-08-23 12:34:00,74.1,60.6,29.49,SW,225,0.0,0.0,63,0.00,,,0.00,WUHU216HW,2013-08-23 16:34:00,
2013-08-23 12:39:00,74.3,60.4,29.49,NNE,23,0.0,0.0,62,0.00,,,0.00,WUHU216HW,2013-08-23 16:39:00,
2013-08-23 12:44:00,74.4,60.5,29.49,West,270,0.0,0.0,62,0.00,,,0.00,WUHU216HW,2013-08-23 16:44:00,
2013-08-23 12:49:00,74.3,60.8,29.49,NW,315,0.0,0.0,63,0.00,,,0.00,WUHU216HW,2013-08-23 16:49:00,
2013-08-23 12:55:00,74.4,61.0,29.49,NW,315,0.0,0.0,63,0.00,,,0.00,WUHU216HW,2013-08-23 16:55:00,
2013-08-23 13:00:00,74.4,60.5,29.49,WSW,248,0.0,0.0,62,0.00,,,0.00,WUHU216HW,2013-08-23 17:00:00,
2013-08-23 13:05:00,74.4,61.0,29.49,WNW,293,0.0,0.0,63,0.00,,,0.00,WUHU216HW,2013-08-23 17:05:00,
2013-08-23 13:10:00,74.8,60.9,29.49,NNW,338,0.0,0.0,62,0.00,,,0.00,WUHU216HW,2013-08-23 17:10:00,
2013-08-23 13:15:00,74.8,60.9,29.49,SSE,158,0.0,0.0,62,0.00,,,0.00,WUHU216HW,2013-08-23 17:15:00,
2013-08-23 13:20:00,74.8,60.9,29.49,SE,135,0.0,0.0,62,0.00,,,0.00,WUHU216HW,2013-08-23 17:20:00,
2013-08-23 13:25:00,75.0,61.1,29.49,West,270,0.0,0.0,62,0.00,,,0.00,WUHU216HW,2013-08-23 17:25:00,
2013-08-23 13:30:00,75.0,60.6,29.49,SW,225,0.0,0.0,61,0.00,,,0.00,WUHU216HW,2013-08-23 17:30:00,
2013-08-23 13:35:00,75.3,60.6,29.49,SSW,203,0.0,0.0,60,0.00,,,0.00,WUHU216HW,2013-08-23 17:35:00,
2013-08-23 13:40:00,75.3,61.0,29.49,ESE,113,0.0,0.0,61,0.00,,,0.00,WUHU216HW,2013-08-23 17:40:00,
2013-08-23 13:45:00,75.7,61.3,29.49,SSE,158,0.0,0.0,61,0.00,,,0.00,WUHU216HW,2013-08-23 17:45:00,
2013-08-23 13:50:00,75.5,60.2,29.49,West,270,0.0,0.0,59,0.00,,,0.00,WUHU216HW,2013-08-23 17:50:00,
2013-08-23 13:56:00,75.3,60.0,29.49,West,270,0.0,0.0,59,0.00,,,0.00,WUHU216HW,2013-08-23 17:56:00,
2013-08-23 14:01:00,75.3,60.6,29.49,NE,45,0.0,0.0,60,0.00,,,0.00,WUHU216HW,2013-08-23 18:01:00,
2013-08-23 14:06:00,75.5,60.2,29.49,SE,135,0.0,0.0,59,0.00,,,0.00,WUHU216HW,2013-08-23 18:06:00,
2013-08-23 14:11:00,75.7,59.9,29.49,SSE,158,0.0,0.0,58,0.00,,,0.00,WUHU216HW,2013-08-23 18:11:00,
2013-08-23 14:16:00,75.5,59.7,29.50,SSE,158,0.0,0.0,58,0.00,,,0.00,WUHU216HW,2013-08-23 18:16:00,
2013-08-23 14:21:00,75.5,59.7,29.49,NW,315,0.0,0.0,58,0.00,,,0.00,WUHU216HW,2013-08-23 18:21:00,
2013-08-23 14:26:00,75.5,59.7,29.49,ESE,113,0.0,0.0,58,0.00,,,0.00,WUHU216HW,2013-08-23 18:26:00,
2013-08-23 14:31:00,75.7,59.9,29.49,South,180,0.0,0.0,58,0.00,,,0.00,WUHU216HW,2013-08-23 18:31:00,
2013-08-23 14:36:00,75.9,60.0,29.49,SSE,158,0.0,0.0,58,0.00,,,0.00,WUHU216HW,2013-08-23 18:36:00,
2013-08-23 14:41:00,75.9,60.0,29.49,SE,135,0.0,0.0,58,0.00,,,0.00,WUHU216HW,2013-08-23 18:41:00,
2013-08-23 14:46:00,75.7,59.4,29.49,East,90,0.0,0.0,57,0.00,,,0.00,WUHU216HW,2013-08-23 18:46:00,
2013-08-23 14:52:00,75.9,60.0,29.49,WNW,293,0.0,0.0,58,0.00,,,0.00,WUHU216HW,2013-08-23 18:52:00,
2013-08-23 14:57:00,75.9,60.0,29.49,SE,135,0.0,0.0,58,0.00,,,0.00,WUHU216HW,2013-08-23 18:57:00,
2013-08-23 15:02:00,76.1,60.2,29.50,ESE,113,0.0,0.0,58,0.00,,,0.00,WUHU216HW,2013-08-23 19:02:00,
2013-08-23 15:07:00,76.1,60.2,29.50,NNE,23,0.0,0.0,58,0.00,,,0.00,WUHU216HW,2013-08-23 19:07:00,
2013-08-23 15:12:00,76.1,60.7,29.50,WNW,293,0.0,0.0,59,0.00,,,0.00,WUHU216HW,2013-08-23 19:12:00,
2013-08-23 15:17:00,76.1,60.2,29.49,ESE,113,0.0,0.0,58,0.00,,,0.00,WUHU216HW,2013-08-23 19:17:00,
2013-08-23 15:22:00,75.9,59.5,29.49,ESE,113,0.0,0.0,57,0.00,,,0.00,WUHU216HW,2013-08-23 19:22:00,
2013-08-23 15:27:00,75.9,59.5,29.49,SE,135,0.0,0.0,57,0.00,,,0.00,WUHU216HW,2013-08-23 19:27:00,
2013-08-23 15:32:00,75.7,58.9,29.49,West,270,0.0,0.0,56,0.00,,,0.00,WUHU216HW,2013-08-23 19:32:00,
2013-08-23 15:37:00,75.5,59.2,29.49,WSW,248,0.0,0.0,57,0.00,,,0.00,WUHU216HW,2013-08-23 19:37:00,
2013-08-23 15:42:00,75.5,59.2,29.49,WNW,293,0.0,0.0,57,0.00,,,0.00,WUHU216HW,2013-08-23 19:42:00,
2013-08-23 15:47:00,75.3,59.0,29.49,SE,135,0.0,0.0,57,0.00,,,0.00,WUHU216HW,2013-08-23 19:47:00,
2013-08-23 15:53:00,75.3,59.5,29.49,ENE,68,0.0,0.0,58,0.00,,,0.00,WUHU216HW,2013-08-23 19:53:00,
2013-08-23 15:58:00,75.0,59.2,29.49,WSW,248,0.0,0.0,58,0.00,,,0.00,WUHU216HW,2013-08-23 19:58:00,
2013-08-23 16:03:00,75.0,59.2,29.49,WSW,248,0.0,0.0,58,0.00,,,0.00,WUHU216HW,2013-08-23 20:03:00,
2013-08-23 16:08:00,75.3,59.5,29.49,WSW,248,0.0,0.0,58,0.00,,,0.00,WUHU216HW,2013-08-23 20:08:00,
2013-08-23 16:13:00,75.3,59.5,29.49,SSW,203,0.0,0.0,58,0.00,,,0.00,WUHU216HW,2013-08-23 20:13:00,
2013-08-23 16:18:00,75.5,59.7,29.50,SE,135,0.0,0.0,58,0.00,,,0.00,WUHU216HW,2013-08-23 20:18:00,
2013-08-23 16:23:00,75.3,59.0,29.50,ESE,113,0.0,0.0,57,0.00,,,0.00,WUHU216HW,2013-08-23 20:23:00,
2013-08-23 16:28:00,75.0,59.2,29.50,SSE,158,0.0,0.0,58,0.00,,,0.00,WUHU216HW,2013-08-23 20:28:00,
2013-08-23 16:33:00,75.0,58.7,29.50,WSW,248,0.0,0.0,57,0.00,,,0.00,WUHU216HW,2013-08-23 20:33:00,
2013-08-23 16:38:00,75.0,58.7,29.50,West,270,0.0,0.0,57,0.00,,,0.00,WUHU216HW,2013-08-23 20:38:00,
2013-08-23 16:43:00,75.0,58.7,29.50,SSE,158,0.0,0.0,57,0.00,,,0.00,WUHU216HW,2013-08-23 20:43:00,
2013-08-23 16:48:00,75.0,59.2,29.50,ESE,113,0.0,0.0,58,0.00,,,0.00,WUHU216HW,2013-08-23 20:48:00,
2013-08-23 16:54:00,75.0,59.2,29.50,WSW,248,0.0,0.0,58,0.00,,,0.00,WUHU216HW,2013-08-23 20:54:00,
2013-08-23 16:59:00,74.8,59.0,29.50,NE,45,0.0,0.0,58,0.00,,,0.00,WUHU216HW,2013-08-23 20:59:00,
2013-08-23 17:04:00,74.8,59.5,29.50,SSE,158,0.0,0.0,59,0.00,,,0.00,WUHU216HW,2013-08-23 21:04:00,
2013-08-23 17:09:00,74.8,59.5,29.50,SE,135,0.0,0.0,59,0.00,,,0.00,WUHU216HW,2013-08-23 21:09:00,
2013-08-23 17:14:00,74.4,59.2,29.50,ESE,113,0.0,0.0,59,0.00,,,0.00,WUHU216HW,2013-08-23 21:14:00,
2013-08-23 17:19:00,74.4,59.2,29.50,SE,135,0.0,0.0,59,0.00,,,0.00,WUHU216HW,2013-08-23 21:19:00,
2013-08-23 17:24:00,74.4,59.2,29.50,WSW,248,0.0,0.0,59,0.00,,,0.00,WUHU216HW,2013-08-23 21:24:00,
2013-08-23 17:29:00,74.4,59.2,29.51,SSE,158,0.0,0.0,59,0.00,,,0.00,WUHU216HW,2013-08-23 21:29:00,
2013-08-23 17:34:00,74.3,59.0,29.50,WNW,293,0.0,0.0,59,0.00,,,0.00,WUHU216HW,2013-08-23 21:34:00,
2013-08-23 17:39:00,74.3,59.0,29.51,SSE,158,0.0,0.0,59,0.00,,,0.00,WUHU216HW,2013-08-23 21:39:00,
2013-08-23 17:44:00,74.1,59.3,29.51,WNW,293,0.0,0.0,60,0.00,,,0.00,WUHU216HW,2013-08-23 21:44:00,
2013-08-23 17:49:00,74.1,58.8,29.50,West,270,0.0,0.0,59,0.00,,,0.00,WUHU216HW,2013-08-23 21:49:00,
2013-08-23 17:54:00,73.9,58.6,29.51,SSE,158,0.0,0.0,59,0.00,,,0.00,WUHU216HW,2013-08-23 21:54:00,
2013-08-23 18:00:00,73.9,58.6,29.51,West,270,0.0,0.0,59,0.00,,,0.00,WUHU216HW,2013-08-23 22:00:00,
2013-08-23 18:05:00,73.9,58.6,29.50,ESE,113,0.0,0.0,59,0.00,,,0.00,WUHU216HW,2013-08-23 22:05:00,
2013-08-23 18:10:00,73.7,59.0,29.50,West,270,0.0,0.0,60,0.00,,,0.00,WUHU216HW,2013-08-23 22:10:00,
2013-08-23 18:15:00,73.7,59.0,29.50,WNW,293,0.0,0.0,60,0.00,,,0.00,WUHU216HW,2013-08-23 22:15:00,
2013-08-23 18:20:00,73.5,58.8,29.50,ESE,113,0.0,0.0,60,0.00,,,0.00,WUHU216HW,2013-08-23 22:20:00,
2013-08-23 18:25:00,73.4,59.0,29.51,North,0,0.0,0.0,61,0.00,,,0.00,WUHU216HW,2013-08-23 22:25:00,
2013-08-23 18:30:00,73.2,58.9,29.51,NNE,23,0.0,0.0,61,0.00,,,0.00,WUHU216HW,2013-08-23 22:30:00,
2013-08-23 18:35:00,73.0,57.8,29.51,WSW,248,0.0,0.0,59,0.00,,,0.00,WUHU216HW,2013-08-23 22:35:00,
2013-08-23 18:40:00,72.8,56.6,29.51,SE,135,0.0,0.0,57,0.00,,,0.00,WUHU216HW,2013-08-23 22:40:00,
2013-08-23 18:45:00,72.5,56.4,29.51,West,270,0.0,0.0,57,0.00,,,0.00,WUHU216HW,2013-08-23 22:45:00,
2013-08-23 18:50:00,72.3,56.1,29.52,West,270,0.0,0.0,57,0.00,,,0.00,WUHU216HW,2013-08-23 22:50:00,
2013-08-23 18:56:00,72.3,56.1,29.51,NW,315,0.0,0.0,57,0.00,,,0.00,WUHU216HW,2013-08-23 22:56:00,
2013-08-23 19:01:00,71.9,55.8,29.52,WNW,293,0.0,0.0,57,0.00,,,0.00,WUHU216HW,2013-08-23 23:01:00,
2013-08-23 19:06:00,71.7,55.6,29.52,SSE,158,0.0,0.0,57,0.00,,,0.00,WUHU216HW,2013-08-23 23:06:00,
2013-08-23 19:11:00,71.4,55.3,29.52,WNW,293,0.0,0.0,57,0.00,,,0.00,WUHU216HW,2013-08-23 23:11:00,
2013-08-23 19:16:00,71.2,55.3,29.52,SSE,158,0.0,0.0,57,0.00,,,0.00,WUHU216HW,2013-08-23 23:16:00,
2013-08-23 19:21:00,71.0,55.5,29.52,WNW,293,0.0,0.0,58,0.00,,,0.00,WUHU216HW,2013-08-23 23:21:00,
2013-08-23 19:26:00,70.7,55.7,29.53,West,270,0.0,0.0,59,0.00,,,0.00,WUHU216HW,2013-08-23 23:26:00,
2013-08-23 19:31:00,70.3,55.3,29.53,South,180,0.0,0.0,59,0.00,,,0.00,WUHU216HW,2013-08-23 23:31:00,
2013-08-23 19:36:00,70.1,55.7,29.53,South,180,0.0,0.0,60,0.00,,,0.00,WUHU216HW,2013-08-23 23:36:00,
2013-08-23 19:41:00,69.6,55.6,29.53,South,180,0.0,0.0,61,0.00,,,0.00,WUHU216HW,2013-08-23 23:41:00,
2013-08-23 19:46:00,69.4,55.4,29.53,North,0,0.0,0.0,61,0.00,,,0.00,WUHU216HW,2013-08-23 23:46:00,
2013-08-23 19:52:00,69.0,55.5,29.54,North,0,0.0,0.0,62,0.00,,,0.00,WUHU216HW,2013-08-23 23:52:00,
2013-08-23 19:57:00,68.7,55.5,29.54,North,0,0.0,0.0,63,0.00,,,0.00,WUHU216HW,2013-08-23 23:57:00,
2013-08-23 20:02:00,68.5,55.8,29.54,North,0,0.0,0.0,64,0.00,,,0.00,WUHU216HW,2013-08-24 00:02:00,
2013-08-23 20:07:00,68.1,55.4,29.54,North,0,0.0,0.0,64,0.00,,,0.00,WUHU216HW,2013-08-24 00:07:00,
2013-08-23 20:12:00,67.8,55.1,29.54,North,0,0.0,0.0,64,0.00,,,0.00,WUHU216HW,2013-08-24 00:12:00,
2013-08-23 20:17:00,67.6,55.4,29.55,North,0,0.0,0.0,65,0.00,,,0.00,WUHU216HW,2013-08-24 00:17:00,
2013-08-23 20:22:00,67.1,54.8,29.55,North,0,0.0,0.0,65,0.00,,,0.00,WUHU216HW,2013-08-24 00:22:00,
2013-08-23 20:27:00,66.7,54.9,29.56,North,0,0.0,0.0,66,0.00,,,0.00,WUHU216HW,2013-08-24 00:27:00,
2013-08-23 20:32:00,66.5,54.8,29.56,North,0,0.0,0.0,66,0.00,,,0.00,WUHU216HW,2013-08-24 00:32:00,
2013-08-23 20:37:00,66.0,54.2,29.56,North,0,0.0,0.0,66,0.00,,,0.00,WUHU216HW,2013-08-24 00:37:00,
2013-08-23 20:42:00,66.0,54.2,29.57,North,0,0.0,0.0,66,0.00,,,0.00,WUHU216HW,2013-08-24 00:42:00,
2013-08-23 20:48:00,65.8,54.5,29.57,North,0,0.0,0.0,67,0.00,,,0.00,WUHU216HW,2013-08-24 00:48:00,
2013-08-23 20:53:00,65.4,55.0,29.57,North,0,0.0,0.0,69,0.00,,,0.00,WUHU216HW,2013-08-24 00:53:00,
2013-08-23 20:58:00,65.3,54.8,29.57,North,0,0.0,0.0,69,0.00,,,0.00,WUHU216HW,2013-08-24 00:58:00,
2013-08-23 21:03:00,65.1,54.8,29.57,North,0,0.0,0.0,69,0.00,,,0.00,WUHU216HW,2013-08-24 01:03:00,
2013-08-23 21:08:00,65.1,54.7,29.57,North,0,0.0,0.0,69,0.00,,,0.00,WUHU216HW,2013-08-24 01:08:00,
2013-08-23 21:13:00,64.9,54.9,29.57,North,0,0.0,0.0,70,0.00,,,0.00,WUHU216HW,2013-08-24 01:13:00,
2013-08-23 21:18:00,64.7,54.8,29.58,North,0,0.0,0.0,70,0.00,,,0.00,WUHU216HW,2013-08-24 01:18:00,
2013-08-23 21:23:00,64.5,54.6,29.58,North,0,0.0,0.0,70,0.00,,,0.00,WUHU216HW,2013-08-24 01:23:00,
2013-08-23 21:28:00,64.2,54.3,29.58,North,0,0.0,0.0,70,0.00,,,0.00,WUHU216HW,2013-08-24 01:28:00,
2013-08-23 21:33:00,64.2,54.3,29.59,North,0,0.0,0.0,70,0.00,,,0.00,WUHU216HW,2013-08-24 01:33:00,
2013-08-23 21:38:00,64.0,54.1,29.59,North,0,0.0,0.0,70,0.00,,,0.00,WUHU216HW,2013-08-24 01:38:00,
2013-08-23 21:43:00,63.6,54.1,29.59,North,0,0.0,0.0,71,0.00,,,0.00,WUHU216HW,2013-08-24 01:43:00,
2013-08-23 21:49:00,63.6,54.1,29.59,North,0,0.0,0.0,71,0.00,,,0.00,WUHU216HW,2013-08-24 01:49:00,
2013-08-23 21:54:00,63.5,53.9,29.60,North,0,0.0,0.0,71,0.00,,,0.00,WUHU216HW,2013-08-24 01:54:00,
2013-08-23 21:59:00,63.3,54.1,29.60,North,0,0.0,0.0,72,0.00,,,0.00,WUHU216HW,2013-08-24 01:59:00,
2013-08-23 22:04:00,63.1,53.9,29.60,North,0,0.0,0.0,72,0.00,,,0.00,WUHU216HW,2013-08-24 02:04:00,
2013-08-23 22:09:00,62.9,54.1,29.60,North,0,0.0,0.0,73,0.00,,,0.00,WUHU216HW,2013-08-24 02:09:00,
2013-08-23 22:14:00,62.7,54.3,29.60,North,0,0.0,0.0,74,0.00,,,0.00,WUHU216HW,2013-08-24 02:14:00,
2013-08-23 22:19:00,62.6,54.1,29.60,North,0,0.0,0.0,74,0.00,,,0.00,WUHU216HW,2013-08-24 02:19:00,
2013-08-23 22:24:00,62.4,54.3,29.60,North,0,0.0,0.0,75,0.00,,,0.00,WUHU216HW,2013-08-24 02:24:00,
2013-08-23 22:29:00,62.4,54.3,29.60,North,0,0.0,0.0,75,0.00,,,0.00,WUHU216HW,2013-08-24 02:29:00,
2013-08-23 22:34:00,62.2,54.1,29.60,North,0,0.0,0.0,75,0.00,,,0.00,WUHU216HW,2013-08-24 02:34:00,
2013-08-23 22:39:00,62.0,54.3,29.61,North,0,0.0,0.0,76,0.00,,,0.00,WUHU216HW,2013-08-24 02:39:00,
2013-08-23 22:44:00,61.8,54.2,29.61,North,0,0.0,0.0,76,0.00,,,0.00,WUHU216HW,2013-08-24 02:44:00,
2013-08-23 22:49:00,61.8,54.2,29.61,North,0,0.0,0.0,76,0.00,,,0.00,WUHU216HW,2013-08-24 02:49:00,
2013-08-23 22:55:00,61.8,54.2,29.61,North,0,0.0,0.0,76,0.00,,,0.00,WUHU216HW,2013-08-24 02:55:00,
2013-08-23 23:00:00,61.7,54.0,29.61,North,0,0.0,0.0,76,0.00,,,0.00,WUHU216HW,2013-08-24 03:00:00,
2013-08-23 23:05:00,61.7,54.4,29.62,North,0,0.0,0.0,77,0.00,,,0.00,WUHU216HW,2013-08-24 03:05:00,
2013-08-23 23:10:00,61.5,54.2,29.62,North,0,0.0,0.0,77,0.00,,,0.00,WUHU216HW,2013-08-24 03:10:00,
2013-08-23 23:15:00,61.5,54.2,29.62,North,0,0.0,0.0,77,0.00,,,0.00,WUHU216HW,2013-08-24 03:15:00,
2013-08-23 23:20:00,61.5,54.2,29.62,North,0,0.0,0.0,77,0.00,,,0.00,WUHU216HW,2013-08-24 03:20:00,
2013-08-23 23:25:00,61.5,54.2,29.62,North,0,0.0,0.0,77,0.00,,,0.00,WUHU216HW,2013-08-24 03:25:00,
2013-08-23 23:30:00,61.5,53.8,29.63,North,0,0.0,0.0,76,0.00,,,0.00,WUHU216HW,2013-08-24 03:30:00,
2013-08-23 23:35:00,61.3,53.7,29.63,North,0,0.0,0.0,76,0.00,,,0.00,WUHU216HW,2013-08-24 03:35:00,
2013-08-23 23:40:00,61.3,53.7,29.63,North,0,0.0,0.0,76,0.00,,,0.00,WUHU216HW,2013-08-24 03:40:00,
2013-08-23 23:45:00,61.3,53.7,29.63,West,270,0.0,0.0,76,0.00,,,0.00,WUHU216HW,2013-08-24 03:45:00,
2013-08-23 23:50:00,61.3,53.7,29.64,WSW,248,0.0,0.0,76,0.00,,,0.00,WUHU216HW,2013-08-24 03:50:00,
2013-08-23 23:55:00,61.1,53.5,29.64,ESE,113,0.0,0.0,76,0.00,,,0.00,WUHU216HW,2013-08-24 03:55:00,